sensor_id;sensor_type;location;lat;lon;timestamp;temperature;humidity
18541;DHT22;9400;50.924;5.328;2023-04-03T00:00:55;4.20;99.90
18541;DHT22;9400;50.924;5.328;2023-04-03T00:03:23;4.10;99.90
18541;DHT22;9400;50.924;5.328;2023-04-03T00:05:51;4.10;99.90
18541;DHT22;9400;50.924;5.328;2023-04-03T00:08:18;4.10;99.90
18541;DHT22;9400;50.924;5.328;2023-04-03T00:10:45;4.10;99.90
18541;DHT22;9400;50.924;5.328;2023-04-03T00:13:14;4.00;99.90
18541;DHT22;9400;50.924;5.328;2023-04-03T00:15:42;4.00;99.90
18541;DHT22;9400;50.924;5.328;2023-04-03T00:18:09;4.00;99.90
18541;DHT22;9400;50.924;5.328;2023-04-03T00:20:37;4.00;99.90
18541;DHT22;9400;50.924;5.328;2023-04-03T00:23:05;4.00;99.90
18541;DHT22;9400;50.924;5.328;2023-04-03T00:25:32;4.00;99.90
18541;DHT22;9400;50.924;5.328;2023-04-03T00:28:01;4.00;99.90
18541;DHT22;9400;50.924;5.328;2023-04-03T00:30:30;4.00;99.90
18541;DHT22;9400;50.924;5.328;2023-04-03T00:32:58;4.00;99.90
18541;DHT22;9400;50.924;5.328;2023-04-03T00:35:27;3.90;99.90
18541;DHT22;9400;50.924;5.328;2023-04-03T00:37:55;4.00;99.90
18541;DHT22;9400;50.924;5.328;2023-04-03T00:40:24;3.90;99.90
18541;DHT22;9400;50.924;5.328;2023-04-03T00:42:56;4.00;99.90
18541;DHT22;9400;50.924;5.328;2023-04-03T00:45:32;4.00;99.90
18541;DHT22;9400;50.924;5.328;2023-04-03T00:48:03;4.00;99.90
18541;DHT22;9400;50.924;5.328;2023-04-03T00:50:33;4.00;99.90
18541;DHT22;9400;50.924;5.328;2023-04-03T00:53:02;4.00;99.90
18541;DHT22;9400;50.924;5.328;2023-04-03T00:55:31;3.90;99.90
18541;DHT22;9400;50.924;5.328;2023-04-03T00:57:59;3.80;99.90
18541;DHT22;9400;50.924;5.328;2023-04-03T01:00:28;3.80;99.90
18541;DHT22;9400;50.924;5.328;2023-04-03T01:02:57;3.70;99.90
18541;DHT22;9400;50.924;5.328;2023-04-03T01:05:25;3.70;99.90
18541;DHT22;9400;50.924;5.328;2023-04-03T01:07:52;3.60;99.90
18541;DHT22;9400;50.924;5.328;2023-04-03T01:10:20;3.60;99.90
18541;DHT22;9400;50.924;5.328;2023-04-03T01:12:49;3.60;99.90
18541;DHT22;9400;50.924;5.328;2023-04-03T01:15:19;3.60;99.90
18541;DHT22;9400;50.924;5.328;2023-04-03T01:17:52;3.50;99.90
18541;DHT22;9400;50.924;5.328;2023-04-03T01:20:50;3.50;99.90
18541;DHT22;9400;50.924;5.328;2023-04-03T01:23:39;3.40;99.90
18541;DHT22;9400;50.924;5.328;2023-04-03T01:26:12;3.40;99.90
18541;DHT22;9400;50.924;5.328;2023-04-03T01:28:39;3.40;99.90
18541;DHT22;9400;50.924;5.328;2023-04-03T01:31:14;3.40;99.90
18541;DHT22;9400;50.924;5.328;2023-04-03T01:33:44;3.40;99.90
18541;DHT22;9400;50.924;5.328;2023-04-03T01:36:14;3.40;99.90
18541;DHT22;9400;50.924;5.328;2023-04-03T01:38:42;3.30;99.90
18541;DHT22;9400;50.924;5.328;2023-04-03T01:41:10;3.30;99.90
18541;DHT22;9400;50.924;5.328;2023-04-03T01:43:37;3.20;99.90
18541;DHT22;9400;50.924;5.328;2023-04-03T01:46:05;3.20;99.90
18541;DHT22;9400;50.924;5.328;2023-04-03T01:48:33;3.20;99.90
18541;DHT22;9400;50.924;5.328;2023-04-03T01:51:02;3.20;99.90
18541;DHT22;9400;50.924;5.328;2023-04-03T01:53:29;3.20;99.90
18541;DHT22;9400;50.924;5.328;2023-04-03T01:55:57;3.20;99.90
18541;DHT22;9400;50.924;5.328;2023-04-03T01:58:24;3.20;99.90
18541;DHT22;9400;50.924;5.328;2023-04-03T02:00:52;3.10;99.90
18541;DHT22;9400;50.924;5.328;2023-04-03T02:03:20;3.20;99.90
18541;DHT22;9400;50.924;5.328;2023-04-03T02:05:48;3.20;99.90
18541;DHT22;9400;50.924;5.328;2023-04-03T02:08:17;3.20;99.90
18541;DHT22;9400;50.924;5.328;2023-04-03T02:10:46;3.20;99.90
18541;DHT22;9400;50.924;5.328;2023-04-03T02:13:14;3.10;99.90
18541;DHT22;9400;50.924;5.328;2023-04-03T02:15:42;3.10;99.90
18541;DHT22;9400;50.924;5.328;2023-04-03T02:18:11;3.10;99.90
18541;DHT22;9400;50.924;5.328;2023-04-03T02:20:39;3.10;99.90
18541;DHT22;9400;50.924;5.328;2023-04-03T02:23:07;3.00;99.90
18541;DHT22;9400;50.924;5.328;2023-04-03T02:25:36;2.90;99.90
18541;DHT22;9400;50.924;5.328;2023-04-03T02:28:03;2.90;99.90
18541;DHT22;9400;50.924;5.328;2023-04-03T02:30:31;2.90;99.90
18541;DHT22;9400;50.924;5.328;2023-04-03T02:32:58;2.90;99.90
18541;DHT22;9400;50.924;5.328;2023-04-03T02:35:26;2.90;99.90
18541;DHT22;9400;50.924;5.328;2023-04-03T02:37:53;2.90;99.90
18541;DHT22;9400;50.924;5.328;2023-04-03T02:40:21;2.90;99.90
18541;DHT22;9400;50.924;5.328;2023-04-03T02:42:50;2.90;99.90
18541;DHT22;9400;50.924;5.328;2023-04-03T02:45:17;2.90;99.90
18541;DHT22;9400;50.924;5.328;2023-04-03T02:47:45;2.80;99.90
18541;DHT22;9400;50.924;5.328;2023-04-03T02:50:12;2.70;99.90
18541;DHT22;9400;50.924;5.328;2023-04-03T02:52:40;2.70;99.90
18541;DHT22;9400;50.924;5.328;2023-04-03T02:55:08;2.70;99.90
18541;DHT22;9400;50.924;5.328;2023-04-03T02:57:35;2.70;99.90
18541;DHT22;9400;50.924;5.328;2023-04-03T03:00:09;2.70;99.90
18541;DHT22;9400;50.924;5.328;2023-04-03T03:02:37;2.60;99.90
18541;DHT22;9400;50.924;5.328;2023-04-03T03:05:04;2.60;99.90
18541;DHT22;9400;50.924;5.328;2023-04-03T03:07:33;2.50;99.90
18541;DHT22;9400;50.924;5.328;2023-04-03T03:10:00;2.50;99.90
18541;DHT22;9400;50.924;5.328;2023-04-03T03:12:28;2.50;99.90
18541;DHT22;9400;50.924;5.328;2023-04-03T03:14:56;2.50;99.90
18541;DHT22;9400;50.924;5.328;2023-04-03T03:17:25;2.50;99.90
18541;DHT22;9400;50.924;5.328;2023-04-03T03:19:52;2.40;99.90
18541;DHT22;9400;50.924;5.328;2023-04-03T03:22:20;2.40;99.90
18541;DHT22;9400;50.924;5.328;2023-04-03T03:24:47;2.40;99.90
18541;DHT22;9400;50.924;5.328;2023-04-03T03:27:15;2.40;99.90
18541;DHT22;9400;50.924;5.328;2023-04-03T03:29:42;2.50;99.90
18541;DHT22;9400;50.924;5.328;2023-04-03T03:32:10;2.40;99.90
18541;DHT22;9400;50.924;5.328;2023-04-03T03:34:39;2.40;99.90
18541;DHT22;9400;50.924;5.328;2023-04-03T03:37:06;2.40;99.90
18541;DHT22;9400;50.924;5.328;2023-04-03T03:39:33;2.40;99.90
18541;DHT22;9400;50.924;5.328;2023-04-03T03:42:01;2.50;99.90
18541;DHT22;9400;50.924;5.328;2023-04-03T03:44:29;2.50;99.90
18541;DHT22;9400;50.924;5.328;2023-04-03T03:46:57;2.50;99.90
18541;DHT22;9400;50.924;5.328;2023-04-03T03:49:25;2.50;99.90
18541;DHT22;9400;50.924;5.328;2023-04-03T03:51:54;2.50;99.90
18541;DHT22;9400;50.924;5.328;2023-04-03T03:54:21;2.50;99.90
18541;DHT22;9400;50.924;5.328;2023-04-03T03:56:49;2.50;99.90
18541;DHT22;9400;50.924;5.328;2023-04-03T03:59:16;2.50;99.90
18541;DHT22;9400;50.924;5.328;2023-04-03T04:01:43;2.50;99.90
18541;DHT22;9400;50.924;5.328;2023-04-03T04:04:11;2.50;99.90
18541;DHT22;9400;50.924;5.328;2023-04-03T04:06:38;2.40;99.90
18541;DHT22;9400;50.924;5.328;2023-04-03T04:09:09;2.40;99.90
18541;DHT22;9400;50.924;5.328;2023-04-03T04:11:37;2.40;99.90
18541;DHT22;9400;50.924;5.328;2023-04-03T04:14:05;2.40;99.90
18541;DHT22;9400;50.924;5.328;2023-04-03T04:16:32;2.50;99.90
18541;DHT22;9400;50.924;5.328;2023-04-03T04:19:00;2.40;99.90
18541;DHT22;9400;50.924;5.328;2023-04-03T04:21:27;2.40;99.90
18541;DHT22;9400;50.924;5.328;2023-04-03T04:23:55;2.40;99.90
18541;DHT22;9400;50.924;5.328;2023-04-03T04:26:24;2.40;99.90
18541;DHT22;9400;50.924;5.328;2023-04-03T04:28:51;2.30;99.90
18541;DHT22;9400;50.924;5.328;2023-04-03T04:31:19;2.40;99.90
18541;DHT22;9400;50.924;5.328;2023-04-03T04:33:47;2.30;99.90
18541;DHT22;9400;50.924;5.328;2023-04-03T04:36:15;2.30;99.90
18541;DHT22;9400;50.924;5.328;2023-04-03T04:38:43;2.30;99.90
18541;DHT22;9400;50.924;5.328;2023-04-03T04:41:10;2.30;99.90
18541;DHT22;9400;50.924;5.328;2023-04-03T04:43:39;2.20;99.90
18541;DHT22;9400;50.924;5.328;2023-04-03T04:46:08;2.30;99.90
18541;DHT22;9400;50.924;5.328;2023-04-03T04:48:36;2.30;99.90
18541;DHT22;9400;50.924;5.328;2023-04-03T04:51:04;2.30;99.90
18541;DHT22;9400;50.924;5.328;2023-04-03T04:53:32;2.30;99.90
18541;DHT22;9400;50.924;5.328;2023-04-03T04:56:00;2.30;99.90
18541;DHT22;9400;50.924;5.328;2023-04-03T04:58:27;2.40;99.90
18541;DHT22;9400;50.924;5.328;2023-04-03T05:01:01;2.30;99.90
18541;DHT22;9400;50.924;5.328;2023-04-03T05:03:28;2.30;99.90
18541;DHT22;9400;50.924;5.328;2023-04-03T05:05:56;2.20;99.90
18541;DHT22;9400;50.924;5.328;2023-04-03T05:08:23;2.20;99.90
18541;DHT22;9400;50.924;5.328;2023-04-03T05:10:51;2.30;99.90
18541;DHT22;9400;50.924;5.328;2023-04-03T05:13:19;2.20;99.90
18541;DHT22;9400;50.924;5.328;2023-04-03T05:15:46;2.20;99.90
18541;DHT22;9400;50.924;5.328;2023-04-03T05:18:15;2.30;99.90
18541;DHT22;9400;50.924;5.328;2023-04-03T05:20:43;2.30;99.90
18541;DHT22;9400;50.924;5.328;2023-04-03T05:23:11;2.20;99.90
18541;DHT22;9400;50.924;5.328;2023-04-03T05:25:39;2.20;99.90
18541;DHT22;9400;50.924;5.328;2023-04-03T05:28:06;2.20;99.90
18541;DHT22;9400;50.924;5.328;2023-04-03T05:30:34;2.20;99.90
18541;DHT22;9400;50.924;5.328;2023-04-03T05:33:02;2.10;99.90
18541;DHT22;9400;50.924;5.328;2023-04-03T05:35:31;2.10;99.90
18541;DHT22;9400;50.924;5.328;2023-04-03T05:37:58;2.10;99.90
18541;DHT22;9400;50.924;5.328;2023-04-03T05:40:26;2.20;99.90
18541;DHT22;9400;50.924;5.328;2023-04-03T05:42:53;2.20;99.90
18541;DHT22;9400;50.924;5.328;2023-04-03T05:45:20;2.20;99.90
18541;DHT22;9400;50.924;5.328;2023-04-03T05:47:50;2.30;99.90
18541;DHT22;9400;50.924;5.328;2023-04-03T05:50:17;2.30;99.90
18541;DHT22;9400;50.924;5.328;2023-04-03T05:52:49;2.30;99.90
18541;DHT22;9400;50.924;5.328;2023-04-03T05:55:18;2.30;99.90
18541;DHT22;9400;50.924;5.328;2023-04-03T05:57:46;2.30;99.90
18541;DHT22;9400;50.924;5.328;2023-04-03T06:00:15;2.40;99.90
18541;DHT22;9400;50.924;5.328;2023-04-03T06:02:43;2.40;99.90
18541;DHT22;9400;50.924;5.328;2023-04-03T06:05:11;2.40;99.90
18541;DHT22;9400;50.924;5.328;2023-04-03T06:07:40;2.40;99.90
18541;DHT22;9400;50.924;5.328;2023-04-03T06:10:12;2.40;99.90
18541;DHT22;9400;50.924;5.328;2023-04-03T06:12:39;2.60;99.90
18541;DHT22;9400;50.924;5.328;2023-04-03T06:15:08;2.70;99.90
18541;DHT22;9400;50.924;5.328;2023-04-03T06:17:36;2.80;99.90
18541;DHT22;9400;50.924;5.328;2023-04-03T06:20:05;2.90;99.90
18541;DHT22;9400;50.924;5.328;2023-04-03T06:22:33;2.90;99.90
18541;DHT22;9400;50.924;5.328;2023-04-03T06:25:01;2.90;99.90
18541;DHT22;9400;50.924;5.328;2023-04-03T06:27:30;3.10;99.90
18541;DHT22;9400;50.924;5.328;2023-04-03T06:29:59;3.10;99.90
18541;DHT22;9400;50.924;5.328;2023-04-03T06:32:26;3.20;99.90
18541;DHT22;9400;50.924;5.328;2023-04-03T06:34:53;3.30;99.90
18541;DHT22;9400;50.924;5.328;2023-04-03T06:37:22;3.30;99.90
18541;DHT22;9400;50.924;5.328;2023-04-03T06:39:52;3.40;99.90
18541;DHT22;9400;50.924;5.328;2023-04-03T06:42:21;3.30;99.90
18541;DHT22;9400;50.924;5.328;2023-04-03T06:44:49;3.50;99.90
18541;DHT22;9400;50.924;5.328;2023-04-03T06:47:17;3.50;99.90
18541;DHT22;9400;50.924;5.328;2023-04-03T06:49:45;3.60;99.90
18541;DHT22;9400;50.924;5.328;2023-04-03T06:52:13;3.70;99.90
18541;DHT22;9400;50.924;5.328;2023-04-03T06:54:40;3.80;99.90
18541;DHT22;9400;50.924;5.328;2023-04-03T06:57:08;3.80;99.90
18541;DHT22;9400;50.924;5.328;2023-04-03T06:59:36;4.00;99.90
18541;DHT22;9400;50.924;5.328;2023-04-03T07:02:08;4.00;99.90
18541;DHT22;9400;50.924;5.328;2023-04-03T07:04:35;4.00;99.90
18541;DHT22;9400;50.924;5.328;2023-04-03T07:07:03;4.00;99.90
18541;DHT22;9400;50.924;5.328;2023-04-03T07:09:30;4.00;99.90
18541;DHT22;9400;50.924;5.328;2023-04-03T07:11:58;4.10;99.90
18541;DHT22;9400;50.924;5.328;2023-04-03T07:14:26;4.20;99.90
18541;DHT22;9400;50.924;5.328;2023-04-03T07:16:53;4.30;99.90
18541;DHT22;9400;50.924;5.328;2023-04-03T07:19:22;4.30;99.90
18541;DHT22;9400;50.924;5.328;2023-04-03T07:21:53;4.30;99.90
18541;DHT22;9400;50.924;5.328;2023-04-03T07:24:20;4.40;99.90
18541;DHT22;9400;50.924;5.328;2023-04-03T07:26:49;4.50;99.90
18541;DHT22;9400;50.924;5.328;2023-04-03T07:29:18;4.50;99.90
18541;DHT22;9400;50.924;5.328;2023-04-03T07:31:46;4.50;99.90
18541;DHT22;9400;50.924;5.328;2023-04-03T07:34:17;4.70;99.90
18541;DHT22;9400;50.924;5.328;2023-04-03T07:36:46;4.70;99.90
18541;DHT22;9400;50.924;5.328;2023-04-03T07:39:17;4.70;99.90
18541;DHT22;9400;50.924;5.328;2023-04-03T07:41:45;4.80;99.90
18541;DHT22;9400;50.924;5.328;2023-04-03T07:44:12;4.90;99.90
18541;DHT22;9400;50.924;5.328;2023-04-03T07:46:40;4.90;99.90
18541;DHT22;9400;50.924;5.328;2023-04-03T07:49:09;5.10;99.90
18541;DHT22;9400;50.924;5.328;2023-04-03T07:51:37;5.10;99.90
18541;DHT22;9400;50.924;5.328;2023-04-03T07:54:07;5.20;99.90
18541;DHT22;9400;50.924;5.328;2023-04-03T07:56:34;5.30;99.90
18541;DHT22;9400;50.924;5.328;2023-04-03T07:59:02;5.40;99.90
18541;DHT22;9400;50.924;5.328;2023-04-03T08:01:30;5.40;99.90
18541;DHT22;9400;50.924;5.328;2023-04-03T08:04:01;5.40;99.90
18541;DHT22;9400;50.924;5.328;2023-04-03T08:06:31;5.50;99.90
18541;DHT22;9400;50.924;5.328;2023-04-03T08:09:00;5.50;99.90
18541;DHT22;9400;50.924;5.328;2023-04-03T08:11:31;5.70;99.90
18541;DHT22;9400;50.924;5.328;2023-04-03T08:13:59;5.80;99.90
18541;DHT22;9400;50.924;5.328;2023-04-03T08:16:27;5.90;99.90
18541;DHT22;9400;50.924;5.328;2023-04-03T08:18:55;6.00;99.90
18541;DHT22;9400;50.924;5.328;2023-04-03T08:21:22;6.10;99.90
18541;DHT22;9400;50.924;5.328;2023-04-03T08:23:50;6.10;99.90
18541;DHT22;9400;50.924;5.328;2023-04-03T08:26:20;6.10;99.90
18541;DHT22;9400;50.924;5.328;2023-04-03T08:28:50;6.10;99.90
18541;DHT22;9400;50.924;5.328;2023-04-03T08:31:19;6.30;99.90
18541;DHT22;9400;50.924;5.328;2023-04-03T08:33:47;6.40;99.90
18541;DHT22;9400;50.924;5.328;2023-04-03T08:36:20;6.50;99.90
18541;DHT22;9400;50.924;5.328;2023-04-03T08:38:48;6.50;99.90
18541;DHT22;9400;50.924;5.328;2023-04-03T08:41:20;6.60;99.90
18541;DHT22;9400;50.924;5.328;2023-04-03T08:44:17;6.70;99.90
18541;DHT22;9400;50.924;5.328;2023-04-03T08:47:01;6.80;99.90
18541;DHT22;9400;50.924;5.328;2023-04-03T08:49:32;6.80;99.90
18541;DHT22;9400;50.924;5.328;2023-04-03T08:52:04;6.90;99.90
18541;DHT22;9400;50.924;5.328;2023-04-03T08:54:34;7.00;99.90
18541;DHT22;9400;50.924;5.328;2023-04-03T08:57:04;6.80;99.90
18541;DHT22;9400;50.924;5.328;2023-04-03T08:59:38;6.90;99.90
18541;DHT22;9400;50.924;5.328;2023-04-03T09:02:23;6.90;99.90
18541;DHT22;9400;50.924;5.328;2023-04-03T09:04:52;6.90;99.90
18541;DHT22;9400;50.924;5.328;2023-04-03T09:07:25;6.90;99.90
18541;DHT22;9400;50.924;5.328;2023-04-03T09:09:59;7.00;99.90
18541;DHT22;9400;50.924;5.328;2023-04-03T09:12:36;7.10;99.90
18541;DHT22;9400;50.924;5.328;2023-04-03T09:15:14;7.20;99.90
18541;DHT22;9400;50.924;5.328;2023-04-03T09:17:51;7.40;99.90
18541;DHT22;9400;50.924;5.328;2023-04-03T09:20:27;7.50;99.90
18541;DHT22;9400;50.924;5.328;2023-04-03T09:22:58;7.70;99.90
18541;DHT22;9400;50.924;5.328;2023-04-03T09:25:28;7.80;99.90
18541;DHT22;9400;50.924;5.328;2023-04-03T09:28:00;7.90;99.90
18541;DHT22;9400;50.924;5.328;2023-04-03T09:30:30;8.00;99.90
18541;DHT22;9400;50.924;5.328;2023-04-03T09:32:58;7.90;99.90
18541;DHT22;9400;50.924;5.328;2023-04-03T09:35:27;8.00;99.90
18541;DHT22;9400;50.924;5.328;2023-04-03T09:38:01;8.00;99.90
18541;DHT22;9400;50.924;5.328;2023-04-03T09:40:35;8.20;99.90
18541;DHT22;9400;50.924;5.328;2023-04-03T09:43:27;8.40;99.90
18541;DHT22;9400;50.924;5.328;2023-04-03T09:46:18;8.20;99.90
18541;DHT22;9400;50.924;5.328;2023-04-03T09:48:56;8.30;99.90
18541;DHT22;9400;50.924;5.328;2023-04-03T09:51:26;8.20;99.90
18541;DHT22;9400;50.924;5.328;2023-04-03T09:53:55;8.20;99.90
18541;DHT22;9400;50.924;5.328;2023-04-03T09:56:25;8.10;99.90
18541;DHT22;9400;50.924;5.328;2023-04-03T09:59:12;8.30;99.90
18541;DHT22;9400;50.924;5.328;2023-04-03T10:01:57;8.50;99.90
18541;DHT22;9400;50.924;5.328;2023-04-03T10:04:25;8.60;99.90
18541;DHT22;9400;50.924;5.328;2023-04-03T10:07:03;8.70;99.90
18541;DHT22;9400;50.924;5.328;2023-04-03T10:09:55;8.70;99.90
18541;DHT22;9400;50.924;5.328;2023-04-03T10:12:23;8.60;99.90
18541;DHT22;9400;50.924;5.328;2023-04-03T10:14:55;8.60;99.90
18541;DHT22;9400;50.924;5.328;2023-04-03T10:17:31;8.60;99.90
18541;DHT22;9400;50.924;5.328;2023-04-03T10:20:09;8.90;99.90
18541;DHT22;9400;50.924;5.328;2023-04-03T10:22:51;9.00;99.90
18541;DHT22;9400;50.924;5.328;2023-04-03T10:25:28;9.30;99.90
18541;DHT22;9400;50.924;5.328;2023-04-03T10:28:01;9.40;99.90
18541;DHT22;9400;50.924;5.328;2023-04-03T10:30:37;9.50;99.90
18541;DHT22;9400;50.924;5.328;2023-04-03T10:33:20;9.60;99.90
18541;DHT22;9400;50.924;5.328;2023-04-03T10:35:59;9.50;99.90
18541;DHT22;9400;50.924;5.328;2023-04-03T10:38:36;9.40;99.90
18541;DHT22;9400;50.924;5.328;2023-04-03T10:41:12;9.30;99.90
18541;DHT22;9400;50.924;5.328;2023-04-03T10:43:54;9.50;99.90
18541;DHT22;9400;50.924;5.328;2023-04-03T10:46:28;9.80;99.90
18541;DHT22;9400;50.924;5.328;2023-04-03T10:49:13;9.70;99.90
18541;DHT22;9400;50.924;5.328;2023-04-03T10:51:48;9.90;99.90
18541;DHT22;9400;50.924;5.328;2023-04-03T10:54:22;9.80;99.90
18541;DHT22;9400;50.924;5.328;2023-04-03T10:56:54;10.00;99.90
18541;DHT22;9400;50.924;5.328;2023-04-03T10:59:26;10.20;99.90
18541;DHT22;9400;50.924;5.328;2023-04-03T11:01:58;10.00;99.90
18541;DHT22;9400;50.924;5.328;2023-04-03T11:04:35;10.20;99.90
18541;DHT22;9400;50.924;5.328;2023-04-03T11:07:10;10.40;99.90
18541;DHT22;9400;50.924;5.328;2023-04-03T11:09:42;10.40;99.90
18541;DHT22;9400;50.924;5.328;2023-04-03T11:12:14;10.30;99.90
18541;DHT22;9400;50.924;5.328;2023-04-03T11:14:44;10.10;99.90
18541;DHT22;9400;50.924;5.328;2023-04-03T11:17:22;10.20;99.90
18541;DHT22;9400;50.924;5.328;2023-04-03T11:20:01;10.50;99.90
18541;DHT22;9400;50.924;5.328;2023-04-03T11:22:34;10.70;99.90
18541;DHT22;9400;50.924;5.328;2023-04-03T11:25:13;10.50;99.90
18541;DHT22;9400;50.924;5.328;2023-04-03T11:27:48;10.30;99.90
18541;DHT22;9400;50.924;5.328;2023-04-03T11:30:20;10.60;99.90
18541;DHT22;9400;50.924;5.328;2023-04-03T11:33:07;10.80;99.90
18541;DHT22;9400;50.924;5.328;2023-04-03T11:35:43;10.40;99.90
18541;DHT22;9400;50.924;5.328;2023-04-03T11:38:17;10.60;99.90
18541;DHT22;9400;50.924;5.328;2023-04-03T11:40:48;10.50;99.90
18541;DHT22;9400;50.924;5.328;2023-04-03T11:43:24;10.30;99.90
18541;DHT22;9400;50.924;5.328;2023-04-03T11:45:57;10.70;99.90
18541;DHT22;9400;50.924;5.328;2023-04-03T11:48:48;11.20;99.90
18541;DHT22;9400;50.924;5.328;2023-04-03T11:51:40;11.40;99.90
18541;DHT22;9400;50.924;5.328;2023-04-03T11:57:46;11.40;99.90
18541;DHT22;9400;50.924;5.328;2023-04-03T12:12:39;12.30;99.90
18541;DHT22;9400;50.924;5.328;2023-04-03T12:15:23;12.20;99.90
18541;DHT22;9400;50.924;5.328;2023-04-03T12:17:52;12.70;99.90
18541;DHT22;9400;50.924;5.328;2023-04-03T12:20:54;13.00;99.90
18541;DHT22;9400;50.924;5.328;2023-04-03T12:23:33;13.40;99.90
18541;DHT22;9400;50.924;5.328;2023-04-03T12:26:08;13.30;99.90
18541;DHT22;9400;50.924;5.328;2023-04-03T12:28:50;13.40;99.90
18541;DHT22;9400;50.924;5.328;2023-04-03T12:31:20;13.10;99.90
18541;DHT22;9400;50.924;5.328;2023-04-03T12:34:09;13.10;99.90
18541;DHT22;9400;50.924;5.328;2023-04-03T12:36:46;13.20;99.90
18541;DHT22;9400;50.924;5.328;2023-04-03T12:39:42;13.00;99.90
18541;DHT22;9400;50.924;5.328;2023-04-03T12:42:29;13.30;99.90
18541;DHT22;9400;50.924;5.328;2023-04-03T12:45:03;13.30;99.90
18541;DHT22;9400;50.924;5.328;2023-04-03T12:47:37;13.50;99.90
18541;DHT22;9400;50.924;5.328;2023-04-03T12:50:19;13.90;99.90
18541;DHT22;9400;50.924;5.328;2023-04-03T12:52:54;14.70;99.90
18541;DHT22;9400;50.924;5.328;2023-04-03T12:55:22;14.50;99.90
18541;DHT22;9400;50.924;5.328;2023-04-03T12:57:50;14.90;99.90
18541;DHT22;9400;50.924;5.328;2023-04-03T13:00:30;15.50;99.90
18541;DHT22;9400;50.924;5.328;2023-04-03T13:02:58;14.70;99.90
18541;DHT22;9400;50.924;5.328;2023-04-03T13:05:27;15.10;99.90
18541;DHT22;9400;50.924;5.328;2023-04-03T13:07:59;15.40;99.90
18541;DHT22;9400;50.924;5.328;2023-04-03T13:10:29;15.70;99.90
18541;DHT22;9400;50.924;5.328;2023-04-03T13:12:59;15.90;99.90
18541;DHT22;9400;50.924;5.328;2023-04-03T13:15:43;15.80;99.90
18541;DHT22;9400;50.924;5.328;2023-04-03T13:18:23;15.20;99.90
18541;DHT22;9400;50.924;5.328;2023-04-03T13:20:51;15.30;99.90
18541;DHT22;9400;50.924;5.328;2023-04-03T13:23:20;16.50;99.90
18541;DHT22;9400;50.924;5.328;2023-04-03T13:25:49;16.80;99.90
18541;DHT22;9400;50.924;5.328;2023-04-03T13:28:21;17.90;99.90
18541;DHT22;9400;50.924;5.328;2023-04-03T13:31:02;17.80;99.90
18541;DHT22;9400;50.924;5.328;2023-04-03T13:33:32;18.20;99.90
18541;DHT22;9400;50.924;5.328;2023-04-03T13:36:05;18.10;99.90
18541;DHT22;9400;50.924;5.328;2023-04-03T13:38:34;17.70;99.90
18541;DHT22;9400;50.924;5.328;2023-04-03T13:41:05;16.90;99.90
18541;DHT22;9400;50.924;5.328;2023-04-03T13:43:48;17.80;99.90
18541;DHT22;9400;50.924;5.328;2023-04-03T13:46:27;18.70;99.90
18541;DHT22;9400;50.924;5.328;2023-04-03T13:48:56;18.70;99.90
18541;DHT22;9400;50.924;5.328;2023-04-03T13:51:26;19.50;99.90
18541;DHT22;9400;50.924;5.328;2023-04-03T13:53:56;19.50;99.90
18541;DHT22;9400;50.924;5.328;2023-04-03T13:56:27;18.90;99.90
18541;DHT22;9400;50.924;5.328;2023-04-03T13:59:05;20.20;99.90
18541;DHT22;9400;50.924;5.328;2023-04-03T14:01:41;21.10;99.90
18541;DHT22;9400;50.924;5.328;2023-04-03T14:04:17;20.80;99.90
18541;DHT22;9400;50.924;5.328;2023-04-03T14:06:45;21.00;99.90
18541;DHT22;9400;50.924;5.328;2023-04-03T14:09:14;21.50;99.90
18541;DHT22;9400;50.924;5.328;2023-04-03T14:11:43;20.50;99.90
18541;DHT22;9400;50.924;5.328;2023-04-03T14:14:15;19.80;99.90
18541;DHT22;9400;50.924;5.328;2023-04-03T14:16:46;20.10;99.90
18541;DHT22;9400;50.924;5.328;2023-04-03T14:19:19;19.70;99.90
18541;DHT22;9400;50.924;5.328;2023-04-03T14:21:48;20.40;99.90
18541;DHT22;9400;50.924;5.328;2023-04-03T14:24:17;20.60;99.90
18541;DHT22;9400;50.924;5.328;2023-04-03T14:26:45;21.10;99.90
18541;DHT22;9400;50.924;5.328;2023-04-03T14:29:13;20.30;99.90
18541;DHT22;9400;50.924;5.328;2023-04-03T14:31:42;19.70;99.90
18541;DHT22;9400;50.924;5.328;2023-04-03T14:34:12;20.30;99.90
18541;DHT22;9400;50.924;5.328;2023-04-03T14:36:41;20.40;99.90
18541;DHT22;9400;50.924;5.328;2023-04-03T14:39:15;22.00;99.90
18541;DHT22;9400;50.924;5.328;2023-04-03T14:41:44;21.20;99.90
18541;DHT22;9400;50.924;5.328;2023-04-03T14:44:12;21.40;99.90
18541;DHT22;9400;50.924;5.328;2023-04-03T14:46:42;20.10;99.90
18541;DHT22;9400;50.924;5.328;2023-04-03T14:49:14;19.60;99.90
18541;DHT22;9400;50.924;5.328;2023-04-03T14:51:42;18.80;99.90
18541;DHT22;9400;50.924;5.328;2023-04-03T14:54:13;19.90;99.90
18541;DHT22;9400;50.924;5.328;2023-04-03T14:56:41;19.30;99.90
18541;DHT22;9400;50.924;5.328;2023-04-03T14:59:11;18.00;99.90
18541;DHT22;9400;50.924;5.328;2023-04-03T15:01:39;18.80;99.90
18541;DHT22;9400;50.924;5.328;2023-04-03T15:04:12;20.10;99.90
18541;DHT22;9400;50.924;5.328;2023-04-03T15:06:40;20.80;99.90
18541;DHT22;9400;50.924;5.328;2023-04-03T15:09:18;22.50;99.90
18541;DHT22;9400;50.924;5.328;2023-04-03T15:11:47;22.10;99.90
18541;DHT22;9400;50.924;5.328;2023-04-03T15:14:15;21.40;99.90
18541;DHT22;9400;50.924;5.328;2023-04-03T15:16:42;22.60;99.90
18541;DHT22;9400;50.924;5.328;2023-04-03T15:19:11;22.20;99.90
18541;DHT22;9400;50.924;5.328;2023-04-03T15:21:39;22.90;99.90
18541;DHT22;9400;50.924;5.328;2023-04-03T15:24:08;22.50;99.90
18541;DHT22;9400;50.924;5.328;2023-04-03T15:26:36;22.60;99.90
18541;DHT22;9400;50.924;5.328;2023-04-03T15:29:05;21.90;99.90
18541;DHT22;9400;50.924;5.328;2023-04-03T15:31:32;22.10;99.90
18541;DHT22;9400;50.924;5.328;2023-04-03T15:34:00;21.00;99.90
18541;DHT22;9400;50.924;5.328;2023-04-03T15:36:29;20.70;99.90
18541;DHT22;9400;50.924;5.328;2023-04-03T15:38:56;21.80;99.90
18541;DHT22;9400;50.924;5.328;2023-04-03T15:41:27;22.10;99.90
18541;DHT22;9400;50.924;5.328;2023-04-03T15:43:54;21.20;99.90
18541;DHT22;9400;50.924;5.328;2023-04-03T15:46:22;21.30;99.90
18541;DHT22;9400;50.924;5.328;2023-04-03T15:48:49;21.60;99.90
18541;DHT22;9400;50.924;5.328;2023-04-03T15:51:17;21.70;99.90
18541;DHT22;9400;50.924;5.328;2023-04-03T15:53:45;20.80;99.90
18541;DHT22;9400;50.924;5.328;2023-04-03T15:56:13;21.30;99.90
18541;DHT22;9400;50.924;5.328;2023-04-03T15:58:40;21.00;99.90
18541;DHT22;9400;50.924;5.328;2023-04-03T16:01:09;21.60;99.90
18541;DHT22;9400;50.924;5.328;2023-04-03T16:03:38;22.20;99.90
18541;DHT22;9400;50.924;5.328;2023-04-03T16:06:11;20.40;99.90
18541;DHT22;9400;50.924;5.328;2023-04-03T16:08:38;20.50;99.90
18541;DHT22;9400;50.924;5.328;2023-04-03T16:11:07;20.30;99.90
18541;DHT22;9400;50.924;5.328;2023-04-03T16:13:35;20.90;99.90
18541;DHT22;9400;50.924;5.328;2023-04-03T16:16:03;20.90;99.90
18541;DHT22;9400;50.924;5.328;2023-04-03T16:18:31;21.20;99.90
18541;DHT22;9400;50.924;5.328;2023-04-03T16:20:59;21.40;99.90
18541;DHT22;9400;50.924;5.328;2023-04-03T16:23:26;21.40;99.90
18541;DHT22;9400;50.924;5.328;2023-04-03T16:25:54;19.60;99.90
18541;DHT22;9400;50.924;5.328;2023-04-03T16:28:23;19.20;99.90
18541;DHT22;9400;50.924;5.328;2023-04-03T16:30:50;19.90;99.90
18541;DHT22;9400;50.924;5.328;2023-04-03T16:33:18;20.00;99.90
18541;DHT22;9400;50.924;5.328;2023-04-03T16:35:47;21.10;99.90